createdAt,value
2022-09-25T00:00:51.800Z,26.02
2022-09-25T00:03:19.175Z,26.15
2022-09-25T00:05:47.087Z,25.60
2022-09-25T00:08:15.644Z,24.25
2022-09-25T00:10:45.466Z,25.77
2022-09-25T00:13:12.310Z,25.20
2022-09-25T00:15:45.026Z,26.00
2022-09-25T00:18:11.590Z,24.85
2022-09-25T00:20:38.190Z,25.67
2022-09-25T00:23:04.779Z,24.02
2022-09-25T00:25:31.402Z,23.63
2022-09-25T00:27:58.054Z,24.17
2022-09-25T00:30:24.665Z,24.67
2022-09-25T00:32:51.278Z,23.55
2022-09-25T00:35:17.960Z,24.88
2022-09-25T00:37:44.537Z,25.83
2022-09-25T00:40:11.480Z,25.00
2022-09-25T00:42:38.152Z,25.15
2022-09-25T00:45:06.989Z,26.02
2022-09-25T00:47:44.497Z,26.45
2022-09-25T00:50:38.819Z,24.70
2022-09-25T00:53:12.370Z,24.08
2022-09-25T00:55:44.130Z,25.80
2022-09-25T00:58:12.678Z,23.73
2022-09-25T01:00:39.696Z,24.92
2022-09-25T01:03:08.417Z,25.73
2022-09-25T01:05:38.290Z,24.15
2022-09-25T01:08:08.046Z,23.67
2022-09-25T01:10:35.823Z,23.30
2022-09-25T01:13:03.042Z,22.30
2022-09-25T01:15:43.159Z,20.20
2022-09-25T01:18:28.875Z,19.13
2022-09-25T01:21:39.922Z,20.60
2022-09-25T01:24:41.147Z,20.67
2022-09-25T01:27:30.523Z,22.00
2022-09-25T01:30:05.812Z,21.90
2022-09-25T01:32:49.376Z,22.35
2022-09-25T01:35:57.156Z,20.80
2022-09-25T01:38:59.744Z,22.13
2022-09-25T01:41:29.114Z,25.15
2022-09-25T01:44:03.998Z,27.17
2022-09-25T01:46:37.177Z,25.38
2022-09-25T01:49:27.162Z,21.67
2022-09-25T01:51:56.121Z,26.38
2022-09-25T01:54:28.372Z,25.05
2022-09-25T01:57:01.854Z,24.50
2022-09-25T01:59:44.176Z,25.60
2022-09-25T02:02:14.242Z,21.80
2022-09-25T02:04:48.133Z,23.75
2022-09-25T02:07:22.533Z,26.83
2022-09-25T02:09:57.771Z,25.55
2022-09-25T02:12:34.336Z,25.23
2022-09-25T02:15:23.398Z,24.50
2022-09-25T02:18:36.253Z,23.45
2022-09-25T02:21:28.484Z,24.63
2022-09-25T02:24:17.321Z,26.25
2022-09-25T02:26:44.025Z,28.58
2022-09-25T02:29:11.176Z,27.52
2022-09-25T02:31:42.986Z,27.77
2022-09-25T02:34:14.800Z,27.88
2022-09-25T02:36:43.174Z,28.60
2022-09-25T02:39:11.310Z,26.63
2022-09-25T02:42:01.345Z,26.40
2022-09-25T02:44:49.312Z,26.40
2022-09-25T02:47:27.114Z,26.35
2022-09-25T02:50:20.511Z,27.08
2022-09-25T02:53:01.435Z,28.42
2022-09-25T02:55:41.632Z,29.55
2022-09-25T02:58:25.428Z,27.77
2022-09-25T03:00:54.534Z,28.48
2022-09-25T03:03:24.420Z,29.50
2022-09-25T03:05:54.672Z,28.52
2022-09-25T03:08:38.011Z,28.63
2022-09-25T03:11:07.618Z,27.92
2022-09-25T03:13:35.157Z,29.77
2022-09-25T03:16:03.389Z,30.80
2022-09-25T03:18:31.385Z,31.00
2022-09-25T03:20:58.651Z,28.40
2022-09-25T03:23:25.330Z,30.65
2022-09-25T03:25:55.397Z,31.67
2022-09-25T03:28:23.385Z,29.05
2022-09-25T03:31:02.112Z,29.63
2022-09-25T03:33:31.302Z,30.38
2022-09-25T03:36:02.671Z,31.33
2022-09-25T03:38:29.312Z,31.73
2022-09-25T03:40:55.943Z,35.60
2022-09-25T03:43:22.704Z,33.92
2022-09-25T03:45:49.394Z,29.15
2022-09-25T03:48:16.071Z,32.47
2022-09-25T03:50:42.674Z,29.75
2022-09-25T03:53:09.284Z,28.73
2022-09-25T03:55:36.036Z,27.85
2022-09-25T03:58:02.713Z,27.10
2022-09-25T04:00:29.317Z,28.20
2022-09-25T04:02:57.735Z,30.10
2022-09-25T04:05:24.368Z,30.80
2022-09-25T04:07:51.013Z,31.42
2022-09-25T04:10:17.633Z,30.00
2022-09-25T04:12:44.297Z,28.77
2022-09-25T04:15:11.009Z,26.27
2022-09-25T04:17:37.603Z,33.15
2022-09-25T04:20:04.387Z,31.35
2022-09-25T04:22:30.989Z,32.83
2022-09-25T04:24:58.283Z,31.52
2022-09-25T04:27:24.916Z,30.38
2022-09-25T04:29:51.511Z,31.65
2022-09-25T04:32:36.847Z,28.77
2022-09-25T04:35:03.714Z,26.50
2022-09-25T04:37:30.270Z,25.73
2022-09-25T04:39:58.207Z,24.15
2022-09-25T04:42:25.527Z,23.20
2022-09-25T04:44:53.680Z,25.60
2022-09-25T04:47:25.071Z,28.30
2022-09-25T04:49:52.481Z,30.63
2022-09-25T04:52:20.249Z,30.23
2022-09-25T04:54:47.725Z,29.63
2022-09-25T04:57:32.613Z,31.73
2022-09-25T05:00:04.905Z,31.85
2022-09-25T05:02:31.658Z,31.67
2022-09-25T05:04:58.351Z,34.38
2022-09-25T05:07:25.065Z,34.75
2022-09-25T05:09:51.681Z,45.75
2022-09-25T05:12:18.316Z,46.88
2022-09-25T05:14:44.914Z,45.00
2022-09-25T05:17:11.477Z,44.10
2022-09-25T05:19:39.138Z,42.40
2022-09-25T05:22:05.744Z,41.60
2022-09-25T05:24:32.370Z,39.92
2022-09-25T05:26:59.010Z,40.00
2022-09-25T05:29:25.618Z,40.75
2022-09-25T05:31:52.347Z,41.95
2022-09-25T05:34:19.032Z,41.35
2022-09-25T05:36:45.678Z,40.15
2022-09-25T05:39:14.538Z,40.50
2022-09-25T05:41:41.432Z,39.22
2022-09-25T05:44:09.697Z,39.65
2022-09-25T05:46:37.132Z,37.83
2022-09-25T05:49:04.977Z,37.15
2022-09-25T05:51:32.694Z,36.83
2022-09-25T05:54:02.578Z,35.95
2022-09-25T05:56:29.230Z,35.85
2022-09-25T05:58:58.635Z,34.78
2022-09-25T06:01:26.008Z,34.63
2022-09-25T06:03:52.770Z,33.45
2022-09-25T06:06:22.489Z,34.80
2022-09-25T06:08:54.341Z,32.42
2022-09-25T06:11:20.936Z,32.83
2022-09-25T06:13:54.204Z,33.28
2022-09-25T06:16:21.358Z,30.83
2022-09-25T06:18:48.092Z,31.33
2022-09-25T06:21:14.787Z,33.33
2022-09-25T06:23:44.810Z,31.50
2022-09-25T06:26:11.470Z,30.88
2022-09-25T06:28:38.395Z,28.60
2022-09-25T06:31:05.361Z,29.30
2022-09-25T06:33:32.569Z,28.25
2022-09-25T06:36:00.486Z,29.48
2022-09-25T06:38:27.425Z,30.52
2022-09-25T06:40:54.978Z,29.08
2022-09-25T06:43:25.459Z,27.77
2022-09-25T06:45:52.118Z,26.63
2022-09-25T06:48:18.858Z,25.92
2022-09-25T06:50:48.610Z,26.25
2022-09-25T06:53:16.934Z,29.63
2022-09-25T06:55:46.858Z,29.77
2022-09-25T06:58:17.381Z,27.75
2022-09-25T07:00:51.164Z,27.88
2022-09-25T07:03:36.973Z,28.08
2022-09-25T07:06:06.462Z,28.10
2022-09-25T07:08:36.562Z,28.92
2022-09-25T07:11:03.826Z,30.63
2022-09-25T07:13:33.770Z,30.27
2022-09-25T07:16:06.124Z,29.67
2022-09-25T07:18:33.806Z,26.15
2022-09-25T07:21:03.290Z,27.25
2022-09-25T07:23:31.202Z,30.13
2022-09-25T07:26:10.551Z,32.33
2022-09-25T07:28:38.300Z,36.63
2022-09-25T07:31:22.635Z,32.63
2022-09-25T07:33:49.371Z,27.00
2022-09-25T07:36:17.301Z,25.85
2022-09-25T07:38:46.066Z,20.88
2022-09-25T07:41:13.505Z,17.73
2022-09-25T07:43:43.619Z,19.60
2022-09-25T07:46:11.667Z,19.48
2022-09-25T07:48:38.488Z,18.52
2022-09-25T07:51:08.230Z,15.48
2022-09-25T07:53:34.906Z,14.95
2022-09-25T07:56:06.607Z,15.02
2022-09-25T07:58:40.891Z,15.80
2022-09-25T08:01:11.497Z,16.25
2022-09-25T08:03:44.666Z,16.50
2022-09-25T08:06:16.340Z,17.20
2022-09-25T08:08:44.135Z,17.63
2022-09-25T08:11:16.836Z,18.67
2022-09-25T08:13:44.415Z,19.25
2022-09-25T08:16:18.183Z,18.92
2022-09-25T08:18:46.469Z,19.58
2022-09-25T08:21:15.064Z,19.30
2022-09-25T08:23:47.456Z,20.17
2022-09-25T08:26:15.462Z,18.45
2022-09-25T08:28:47.991Z,20.30
2022-09-25T08:31:15.226Z,21.80
2022-09-25T08:33:46.748Z,23.90
2022-09-25T08:36:14.061Z,22.27
2022-09-25T08:38:40.728Z,20.10
2022-09-25T08:41:12.502Z,21.17
2022-09-25T08:44:11.553Z,21.23
2022-09-25T08:47:01.557Z,20.95
2022-09-25T08:49:37.010Z,22.38
2022-09-25T08:52:08.197Z,21.92
2022-09-25T08:54:35.980Z,22.48
2022-09-25T08:57:27.162Z,23.60
2022-09-25T09:00:01.520Z,26.65
2022-09-25T09:02:42.613Z,24.10
2022-09-25T09:05:29.852Z,24.65
2022-09-25T09:08:09.852Z,23.27
2022-09-25T09:10:43.123Z,23.98
2022-09-25T09:14:03.291Z,25.00
2022-09-25T09:16:46.365Z,24.13
2022-09-25T09:19:13.719Z,27.60
2022-09-25T09:21:54.217Z,26.45
2022-09-25T09:24:46.488Z,25.50
2022-09-25T09:27:23.327Z,25.75
2022-09-25T09:32:44.159Z,26.95
2022-09-25T09:35:35.788Z,26.98
2022-09-25T09:38:26.226Z,23.85
2022-09-25T09:41:21.678Z,24.63
2022-09-25T09:44:07.056Z,24.92
2022-09-25T09:46:45.090Z,25.85
2022-09-25T09:49:23.168Z,25.25
2022-09-25T09:52:00.115Z,25.00
2022-09-25T09:54:52.367Z,24.08
2022-09-25T09:57:31.099Z,22.83
2022-09-25T10:00:05.312Z,18.85
2022-09-25T10:02:46.077Z,17.85
2022-09-25T10:05:23.446Z,17.35
2022-09-25T10:07:51.156Z,15.30
2022-09-25T10:10:19.480Z,17.90
2022-09-25T10:12:52.049Z,18.15
2022-09-25T10:15:30.274Z,16.70
2022-09-25T10:17:59.654Z,16.23
2022-09-25T10:20:40.468Z,17.58
2022-09-25T10:23:30.097Z,15.25
2022-09-25T10:25:56.718Z,14.95
2022-09-25T10:28:26.888Z,15.02
2022-09-25T10:30:55.072Z,15.18
2022-09-25T10:33:24.097Z,14.15
2022-09-25T10:35:53.397Z,15.63
2022-09-25T10:38:41.394Z,15.82
2022-09-25T10:41:17.319Z,15.05
2022-09-25T10:44:02.317Z,13.50
2022-09-25T10:46:51.273Z,14.60
2022-09-25T10:49:40.167Z,12.95
2022-09-25T10:52:19.507Z,12.70
2022-09-25T10:54:46.453Z,11.95
2022-09-25T10:57:38.072Z,11.77
2022-09-25T11:00:19.051Z,12.00
2022-09-25T11:02:47.611Z,11.32
2022-09-25T11:05:22.052Z,11.35
2022-09-25T11:07:54.973Z,11.30
2022-09-25T11:10:24.502Z,8.30
2022-09-25T11:12:52.403Z,7.80
2022-09-25T11:15:23.141Z,7.82
2022-09-25T11:17:52.326Z,7.68
2022-09-25T11:20:30.383Z,8.60
2022-09-25T11:23:26.556Z,10.65
2022-09-25T11:26:19.351Z,10.82
2022-09-25T11:28:55.283Z,9.88
2022-09-25T11:31:27.580Z,10.60
2022-09-25T11:34:24.031Z,9.63
2022-09-25T11:37:31.094Z,8.50
2022-09-25T11:40:31.454Z,7.93
2022-09-25T11:43:11.060Z,7.65
2022-09-25T11:45:47.857Z,7.88
2022-09-25T11:51:14.052Z,8.05
2022-09-25T11:53:53.335Z,8.23
2022-09-25T11:56:32.667Z,7.20
2022-09-25T11:59:10.551Z,7.90
2022-09-25T12:01:45.372Z,9.48
2022-09-25T12:04:35.981Z,8.85
2022-09-25T12:07:32.524Z,6.47
2022-09-25T12:10:19.171Z,6.20
2022-09-25T12:12:59.761Z,5.90
2022-09-25T12:15:51.661Z,6.47
2022-09-25T12:18:43.615Z,6.90
2022-09-25T12:21:47.542Z,7.32
2022-09-25T12:24:40.290Z,8.20
2022-09-25T12:27:15.022Z,7.45
2022-09-25T12:30:06.717Z,6.93
2022-09-25T12:32:51.297Z,7.10
2022-09-25T12:35:39.141Z,6.75
2022-09-25T12:38:23.700Z,7.72
2022-09-25T12:40:57.121Z,5.93
2022-09-25T12:43:34.723Z,5.80
2022-09-25T12:46:23.755Z,5.25
2022-09-25T12:49:09.947Z,5.13
2022-09-25T12:51:47.970Z,5.28
2022-09-25T12:54:24.048Z,6.28
2022-09-25T12:57:12.580Z,5.60
2022-09-25T12:59:57.983Z,6.65
2022-09-25T13:02:48.798Z,5.32
2022-09-25T13:05:44.175Z,5.90
2022-09-25T13:08:21.921Z,6.57
2022-09-25T13:10:56.078Z,5.43
2022-09-25T13:13:26.663Z,5.25
2022-09-25T13:15:58.411Z,5.22
2022-09-25T13:18:27.583Z,4.80
2022-09-25T13:20:58.485Z,6.10
2022-09-25T13:23:33.363Z,6.05
2022-09-25T13:26:09.341Z,5.95
2022-09-25T13:28:47.632Z,5.65
2022-09-25T13:31:23.933Z,4.95
2022-09-25T13:33:54.894Z,4.70
2022-09-25T13:36:25.198Z,4.50
2022-09-25T13:39:19.286Z,3.90
2022-09-25T13:41:59.209Z,4.03
2022-09-25T13:44:43.865Z,6.70
2022-09-25T13:47:25.669Z,8.43
2022-09-25T13:50:02.742Z,4.35
2022-09-25T13:52:41.477Z,4.72
2022-09-25T13:55:14.206Z,6.70
2022-09-25T13:57:59.216Z,4.50
2022-09-25T14:00:36.004Z,4.60
2022-09-25T14:05:37.699Z,3.55
2022-09-25T14:08:12.522Z,4.32
2022-09-25T14:10:45.927Z,3.42
2022-09-25T14:13:14.362Z,3.75
2022-09-25T14:15:42.370Z,3.83
2022-09-25T14:18:26.187Z,3.53
2022-09-25T14:20:58.382Z,3.70
2022-09-25T14:23:29.049Z,3.85
2022-09-25T14:26:07.836Z,4.07
2022-09-25T14:28:45.105Z,5.95
2022-09-25T14:31:33.076Z,3.50
2022-09-25T14:34:33.429Z,3.75
2022-09-25T14:37:21.441Z,3.78
2022-09-25T14:40:26.987Z,5.97
2022-09-25T14:43:21.372Z,3.95
2022-09-25T14:46:20.036Z,3.30
2022-09-25T14:48:57.848Z,3.53
2022-09-25T14:51:40.757Z,2.95
2022-09-25T14:54:12.378Z,3.10
2022-09-25T14:56:39.082Z,3.00
2022-09-25T14:59:13.229Z,3.33
2022-09-25T15:01:49.790Z,2.90
2022-09-25T15:04:29.639Z,2.63
2022-09-25T15:07:15.609Z,2.40
2022-09-25T15:09:47.707Z,2.17
2022-09-25T15:12:34.647Z,2.50
2022-09-25T15:15:12.826Z,2.42
2022-09-25T15:17:52.983Z,2.80
2022-09-25T15:20:29.640Z,2.80
2022-09-25T15:23:00.909Z,4.72
2022-09-25T15:25:32.617Z,2.95
2022-09-25T15:27:59.845Z,2.72
2022-09-25T15:30:28.199Z,3.33
2022-09-25T15:33:00.521Z,3.70
2022-09-25T15:35:28.747Z,3.90
2022-09-25T15:38:11.541Z,4.03
2022-09-25T15:40:39.390Z,3.63
2022-09-25T15:43:16.158Z,3.60
2022-09-25T15:48:20.191Z,3.60
2022-09-25T15:50:48.412Z,4.55
2022-09-25T15:53:23.780Z,3.75
2022-09-25T15:55:59.829Z,4.22
2022-09-25T15:58:26.537Z,3.75
2022-09-25T16:01:18.422Z,4.00
2022-09-25T16:04:07.239Z,4.38
2022-09-25T16:06:44.670Z,4.45
2022-09-25T16:09:28.231Z,4.60
2022-09-25T16:12:26.038Z,4.10
2022-09-25T16:14:55.041Z,3.78
2022-09-25T16:17:38.922Z,3.67
2022-09-25T16:20:30.249Z,4.05
2022-09-25T16:23:04.411Z,3.50
2022-09-25T16:25:36.878Z,3.67
2022-09-25T16:28:19.743Z,3.40
2022-09-25T16:30:59.331Z,3.83
2022-09-25T16:33:31.173Z,3.45
2022-09-25T16:36:14.589Z,3.75
2022-09-25T16:39:08.331Z,3.70
2022-09-25T16:41:36.917Z,3.80
2022-09-25T16:44:15.013Z,4.05
2022-09-25T16:46:43.611Z,3.60
2022-09-25T16:49:12.246Z,3.60
2022-09-25T16:51:45.316Z,3.72
2022-09-25T16:54:17.110Z,3.80
2022-09-25T16:56:45.430Z,4.03
2022-09-25T16:59:22.076Z,4.03
2022-09-25T17:01:54.392Z,4.80
2022-09-25T17:04:23.951Z,5.50
2022-09-25T17:06:50.839Z,6.10
2022-09-25T17:09:18.337Z,5.85
2022-09-25T17:11:46.959Z,6.30
2022-09-25T17:14:23.140Z,6.18
2022-09-25T17:16:54.461Z,5.95
2022-09-25T17:19:21.569Z,5.65
2022-09-25T17:21:51.019Z,5.55
2022-09-25T17:24:25.787Z,5.88
2022-09-25T17:26:52.743Z,6.22
2022-09-25T17:29:20.171Z,4.60
2022-09-25T17:31:47.170Z,15.60
2022-09-25T17:34:28.427Z,13.18
2022-09-25T17:36:56.219Z,8.73
2022-09-25T17:39:22.850Z,12.40
2022-09-25T17:41:49.713Z,6.30
2022-09-25T17:44:23.546Z,6.65
2022-09-25T17:46:51.765Z,7.00
2022-09-25T17:49:18.495Z,7.05
2022-09-25T17:51:48.166Z,7.57
2022-09-25T17:54:14.811Z,7.68
2022-09-25T17:56:45.004Z,7.50
2022-09-25T17:59:11.711Z,7.03
2022-09-25T18:01:39.980Z,11.88
2022-09-25T18:04:22.977Z,12.73
2022-09-25T18:06:53.073Z,7.88
2022-09-25T18:09:19.738Z,5.18
2022-09-25T18:11:46.394Z,23.17
2022-09-25T18:14:15.732Z,43.85
2022-09-25T18:16:44.695Z,17.98
2022-09-25T18:19:36.105Z,12.05
2022-09-25T18:22:18.674Z,7.15
2022-09-25T18:24:46.660Z,4.97
2022-09-25T18:27:15.179Z,6.00
2022-09-25T18:29:42.186Z,4.53
2022-09-25T18:32:08.769Z,4.28
2022-09-25T18:34:35.360Z,4.03
2022-09-25T18:37:02.112Z,21.60
2022-09-25T18:39:29.391Z,9.25
2022-09-25T18:41:56.468Z,6.88
2022-09-25T18:44:23.586Z,3.63
2022-09-25T18:46:51.488Z,3.30
2022-09-25T18:49:19.058Z,3.50
2022-09-25T18:51:45.923Z,7.68
2022-09-25T18:54:15.955Z,11.88
2022-09-25T18:56:42.899Z,8.40
2022-09-25T18:59:12.402Z,5.07
2022-09-25T19:01:39.916Z,4.20
2022-09-25T19:04:07.888Z,3.20
2022-09-25T19:06:34.865Z,3.22
2022-09-25T19:09:02.719Z,3.47
2022-09-25T19:11:29.467Z,3.72
2022-09-25T19:13:56.449Z,3.22
2022-09-25T19:16:23.555Z,4.18
2022-09-25T19:18:51.148Z,3.58
2022-09-25T19:21:22.475Z,3.13
2022-09-25T19:23:49.991Z,3.30
2022-09-25T19:26:20.838Z,3.38
2022-09-25T19:28:47.986Z,3.00
2022-09-25T19:31:17.663Z,2.60
2022-09-25T19:33:44.923Z,2.60
2022-09-25T19:36:24.431Z,2.80
2022-09-25T19:38:51.676Z,2.65
2022-09-25T19:41:22.677Z,2.80
2022-09-25T19:43:49.486Z,3.13
2022-09-25T19:46:19.985Z,3.78
2022-09-25T19:48:48.417Z,2.50
2022-09-25T19:51:17.117Z,2.60
2022-09-25T19:53:44.434Z,2.60
2022-09-25T19:56:11.318Z,2.67
2022-09-25T19:58:38.637Z,2.47
2022-09-25T20:01:17.782Z,2.50
2022-09-25T20:03:44.899Z,3.47
2022-09-25T20:06:12.177Z,3.00
2022-09-25T20:08:38.899Z,2.88
2022-09-25T20:11:23.060Z,2.90
2022-09-25T20:13:51.417Z,3.03
2022-09-25T20:16:21.657Z,3.15
2022-09-25T20:18:56.333Z,2.97
2022-09-25T20:21:24.107Z,3.53
2022-09-25T20:23:58.054Z,3.72
2022-09-25T20:26:26.093Z,3.33
2022-09-25T20:29:01.302Z,3.50
2022-09-25T20:31:30.464Z,3.47
2022-09-25T20:33:57.129Z,4.28
2022-09-25T20:36:24.400Z,5.55
2022-09-25T20:38:52.704Z,6.40
2022-09-25T20:41:20.863Z,6.88
2022-09-25T20:43:56.380Z,5.95
2022-09-25T20:46:24.409Z,5.88
2022-09-25T20:48:52.551Z,5.78
2022-09-25T20:51:26.783Z,5.82
2022-09-25T20:54:02.530Z,5.38
2022-09-25T20:56:30.983Z,5.65
2022-09-25T20:58:58.998Z,5.57
2022-09-25T21:01:40.278Z,5.93
2022-09-25T21:04:10.373Z,5.22
2022-09-25T21:06:39.256Z,5.88
2022-09-25T21:09:08.752Z,6.20
2022-09-25T21:11:35.531Z,6.05
2022-09-25T21:14:03.033Z,5.63
2022-09-25T21:16:31.433Z,7.28
2022-09-25T21:19:04.576Z,7.50
2022-09-25T21:21:33.953Z,7.18
2022-09-25T21:24:02.341Z,7.28
2022-09-25T21:26:30.377Z,6.70
2022-09-25T21:28:59.881Z,6.68
2022-09-25T21:31:31.442Z,6.63
2022-09-25T21:33:59.329Z,7.03
2022-09-25T21:36:28.024Z,6.47
2022-09-25T21:38:54.933Z,6.28
2022-09-25T21:41:23.759Z,6.40
2022-09-25T21:43:58.593Z,5.93
2022-09-25T21:46:26.281Z,6.63
2022-09-25T21:48:55.279Z,8.35
2022-09-25T21:51:24.764Z,7.75
2022-09-25T21:53:53.456Z,6.20
2022-09-25T21:56:22.708Z,6.32
2022-09-25T21:58:49.907Z,6.35
2022-09-25T22:01:19.191Z,6.82
2022-09-25T22:03:51.539Z,6.75
2022-09-25T22:06:20.798Z,6.40
2022-09-25T22:08:50.597Z,6.65
2022-09-25T22:11:17.522Z,7.07
2022-09-25T22:13:46.122Z,6.45
2022-09-25T22:16:24.783Z,7.80
2022-09-25T22:18:54.762Z,8.05
2022-09-25T22:21:23.736Z,7.90
2022-09-25T22:23:50.828Z,8.15
2022-09-25T22:26:18.695Z,7.57
2022-09-25T22:28:45.687Z,7.45
2022-09-25T22:31:14.837Z,7.85
2022-09-25T22:33:42.187Z,7.72
2022-09-25T22:36:10.396Z,7.45
2022-09-25T22:38:38.027Z,7.05
2022-09-25T22:41:12.269Z,7.32
2022-09-25T22:43:39.717Z,7.47
2022-09-25T22:46:07.879Z,6.75
2022-09-25T22:48:34.960Z,6.80
2022-09-25T22:51:13.136Z,6.68
2022-09-25T22:53:41.221Z,6.85
2022-09-25T22:56:10.537Z,7.28
2022-09-25T22:58:37.479Z,7.10
2022-09-25T23:01:10.531Z,6.53
2022-09-25T23:03:37.272Z,7.00
2022-09-25T23:06:04.465Z,8.00
2022-09-25T23:08:31.584Z,8.40
2022-09-25T23:11:08.855Z,7.95
2022-09-25T23:13:36.232Z,7.85
2022-09-25T23:16:07.993Z,7.50
2022-09-25T23:18:40.082Z,6.88
2022-09-25T23:21:06.645Z,7.45
2022-09-25T23:23:33.795Z,7.63
2022-09-25T23:26:06.985Z,7.68
2022-09-25T23:28:38.266Z,7.75
2022-09-25T23:31:11.309Z,7.57
2022-09-25T23:33:39.636Z,7.68
2022-09-25T23:36:07.637Z,9.40
2022-09-25T23:38:35.210Z,8.38
2022-09-25T23:41:11.903Z,9.05
2022-09-25T23:43:38.475Z,8.35
2022-09-25T23:46:06.280Z,8.65
2022-09-25T23:48:32.900Z,8.20
2022-09-25T23:50:59.541Z,7.20
2022-09-25T23:53:26.158Z,7.38
2022-09-25T23:55:52.810Z,7.97
2022-09-25T23:58:19.412Z,8.18
